createdAt,value
2022-08-24T00:02:12.010Z,19.00
2022-08-24T00:12:16.499Z,19.10
2022-08-24T00:22:20.824Z,18.40
2022-08-24T00:32:22.962Z,19.80
2022-08-24T00:42:25.363Z,21.40
2022-08-24T00:52:38.925Z,21.40
2022-08-24T01:02:44.897Z,22.50
2022-08-24T01:13:01.165Z,22.80
2022-08-24T01:23:19.703Z,20.80
2022-08-24T01:33:31.900Z,19.40
2022-08-24T01:43:35.206Z,21.10
2022-08-24T01:53:41.858Z,22.10
2022-08-24T02:03:44.062Z,22.00
2022-08-24T02:13:46.358Z,21.80
2022-08-24T02:23:48.474Z,22.70
2022-08-24T02:33:50.755Z,23.40
2022-08-24T02:43:52.757Z,25.30
2022-08-24T02:53:55.333Z,26.00
2022-08-24T03:03:59.654Z,25.30
2022-08-24T03:14:02.276Z,27.50
2022-08-24T03:24:04.154Z,29.30
2022-08-24T03:34:09.172Z,31.00
2022-08-24T03:44:11.354Z,31.10
2022-08-24T03:54:14.801Z,29.90
2022-08-24T04:04:16.954Z,30.30
2022-08-24T04:14:26.862Z,30.10
2022-08-24T04:24:37.716Z,31.70
2022-08-24T04:34:39.654Z,31.10
2022-08-24T04:44:42.130Z,31.00
2022-08-24T04:54:44.213Z,33.10
2022-08-24T05:04:52.678Z,31.00
2022-08-24T05:14:56.739Z,31.30
2022-08-24T05:24:59.077Z,34.30
2022-08-24T05:35:03.623Z,35.30
2022-08-24T05:45:09.176Z,34.90
2022-08-24T05:55:12.359Z,35.70
2022-08-24T06:05:16.336Z,35.30
2022-08-24T06:15:19.795Z,34.50
2022-08-24T06:25:58.335Z,31.50
2022-08-24T06:36:02.517Z,31.60
2022-08-24T06:46:08.469Z,29.40
2022-08-24T06:56:17.677Z,26.10
2022-08-24T07:06:26.557Z,26.00
2022-08-24T07:16:34.759Z,21.90
2022-08-24T07:26:39.024Z,20.30
2022-08-24T07:36:44.813Z,18.30
2022-08-24T07:46:48.146Z,17.90
2022-08-24T07:56:52.720Z,17.90
2022-08-24T08:06:58.264Z,17.10
2022-08-24T08:17:04.994Z,14.40
2022-08-24T08:27:07.717Z,13.40
2022-08-24T08:37:17.357Z,11.80
2022-08-24T08:47:47.307Z,10.80
2022-08-24T08:58:26.139Z,9.90
2022-08-24T09:08:52.138Z,8.00
2022-08-24T09:19:14.596Z,7.80
2022-08-24T09:29:27.520Z,7.90
2022-08-24T09:39:48.168Z,6.30
2022-08-24T09:49:50.519Z,6.00
2022-08-24T10:00:19.218Z,5.20
2022-08-24T10:10:46.178Z,5.20
2022-08-24T10:21:03.175Z,4.60
2022-08-24T10:31:14.110Z,3.80
2022-08-24T10:42:10.682Z,3.20
2022-08-24T10:52:16.713Z,2.40
2022-08-24T11:02:43.469Z,1.00
2022-08-24T11:12:45.980Z,1.10
2022-08-24T11:23:08.875Z,1.00
2022-08-24T11:33:30.342Z,1.00
2022-08-24T11:43:50.657Z,1.00
2022-08-24T11:54:27.092Z,1.00
2022-08-24T12:04:43.737Z,1.00
2022-08-24T12:15:19.100Z,1.00
2022-08-24T12:25:44.920Z,1.00
2022-08-24T12:36:01.836Z,1.00
2022-08-24T12:46:05.016Z,1.00
2022-08-24T12:56:37.497Z,1.00
2022-08-24T13:07:09.835Z,1.00
2022-08-24T13:17:15.096Z,1.00
2022-08-24T13:27:17.755Z,1.00
2022-08-24T13:37:26.318Z,1.00
2022-08-24T13:47:56.294Z,1.00
2022-08-24T13:58:13.678Z,1.00
2022-08-24T14:08:48.874Z,1.00
2022-08-24T14:19:34.239Z,1.00
2022-08-24T14:29:47.074Z,1.00
2022-08-24T14:40:25.229Z,1.00
2022-08-24T14:51:07.357Z,1.00
2022-08-24T15:01:19.325Z,1.00
2022-08-24T15:11:30.175Z,1.00
2022-08-24T15:22:02.119Z,1.00
2022-08-24T15:32:10.554Z,1.00
2022-08-24T15:42:17.317Z,1.00
2022-08-24T15:52:46.277Z,1.00
2022-08-24T16:02:48.924Z,1.00
2022-08-24T16:12:54.317Z,1.00
2022-08-24T16:23:03.856Z,1.00
2022-08-24T16:33:06.340Z,1.00
2022-08-24T16:43:08.177Z,1.00
2022-08-24T16:53:10.095Z,1.00
2022-08-24T17:03:15.094Z,1.00
2022-08-24T17:13:39.273Z,1.00
2022-08-24T17:23:43.195Z,1.00
2022-08-24T17:33:44.998Z,7.00
2022-08-24T17:43:47.737Z,2.10
2022-08-24T17:53:49.836Z,3.00
2022-08-24T18:03:52.542Z,1.70
2022-08-24T18:13:57.018Z,2.60
2022-08-24T18:24:00.218Z,2.30
2022-08-24T18:34:02.774Z,4.70
2022-08-24T18:44:04.624Z,5.40
2022-08-24T18:54:18.360Z,10.20
2022-08-24T19:04:22.071Z,10.60
2022-08-24T19:14:33.679Z,11.70
2022-08-24T19:24:38.134Z,13.20
2022-08-24T19:34:40.579Z,11.60
2022-08-24T19:45:04.511Z,12.40
2022-08-24T19:55:08.351Z,12.60
2022-08-24T20:05:10.774Z,12.70
2022-08-24T20:15:13.413Z,12.50
2022-08-24T20:25:15.652Z,12.90
2022-08-24T20:35:18.096Z,11.80
2022-08-24T20:45:20.079Z,11.20
2022-08-24T20:55:23.617Z,10.80
2022-08-24T21:05:26.623Z,10.70
2022-08-24T21:15:29.095Z,10.90
2022-08-24T21:25:31.457Z,10.90
2022-08-24T21:35:33.894Z,9.80
2022-08-24T21:45:36.078Z,9.30
2022-08-24T21:55:38.594Z,11.40
2022-08-24T22:05:40.833Z,11.80
2022-08-24T22:15:43.920Z,12.40
2022-08-24T22:25:46.277Z,12.60
2022-08-24T22:35:48.255Z,13.40
2022-08-24T22:45:53.076Z,13.00
2022-08-24T22:55:56.836Z,13.00
2022-08-24T23:05:58.476Z,14.50
2022-08-24T23:16:01.380Z,15.10
2022-08-24T23:26:07.755Z,15.20
2022-08-24T23:36:23.699Z,16.20
2022-08-24T23:46:27.565Z,17.10
2022-08-24T23:56:37.654Z,18.10
